createdAt,value
2017-10-13T00:00:47.856Z,19.82
2017-10-13T00:01:47.841Z,19.85
2017-10-13T00:02:47.827Z,19.79
2017-10-13T00:03:47.810Z,19.94
2017-10-13T00:04:47.797Z,19.73
2017-10-13T00:05:47.782Z,19.74
2017-10-13T00:06:47.767Z,19.73
2017-10-13T00:07:47.751Z,19.70
2017-10-13T00:08:47.736Z,19.79
2017-10-13T00:09:47.720Z,19.81
2017-10-13T00:10:47.706Z,19.95
2017-10-13T00:11:47.691Z,19.89
2017-10-13T00:12:47.677Z,19.85
2017-10-13T00:13:47.661Z,20.00
2017-10-13T00:14:47.647Z,19.86
2017-10-13T00:15:47.631Z,19.79
2017-10-13T00:16:47.622Z,19.71
2017-10-13T00:17:47.602Z,19.66
2017-10-13T00:18:47.587Z,19.77
2017-10-13T00:19:47.572Z,19.82
2017-10-13T00:20:47.557Z,19.66
2017-10-13T00:21:47.542Z,19.70
2017-10-13T00:22:47.527Z,19.71
2017-10-13T00:23:47.512Z,19.52
2017-10-13T00:24:47.497Z,19.79
2017-10-13T00:25:47.482Z,19.67
2017-10-13T00:26:47.467Z,19.69
2017-10-13T00:27:47.451Z,19.59
2017-10-13T00:28:47.437Z,19.41
2017-10-13T00:29:47.422Z,19.36
2017-10-13T00:30:47.407Z,19.31
2017-10-13T00:31:47.391Z,19.40
2017-10-13T00:32:47.376Z,19.39
2017-10-13T00:33:47.361Z,19.48
2017-10-13T00:34:47.347Z,19.48
2017-10-13T00:35:47.332Z,19.37
2017-10-13T00:36:47.317Z,18.98
2017-10-13T00:37:47.301Z,18.65
2017-10-13T00:38:47.286Z,18.62
2017-10-13T00:39:47.271Z,18.65
2017-10-13T00:40:47.255Z,18.86
2017-10-13T00:41:47.241Z,18.73
2017-10-13T00:42:47.226Z,18.86
2017-10-13T00:43:47.209Z,19.04
2017-10-13T00:44:47.200Z,19.14
2017-10-13T00:45:47.180Z,18.98
2017-10-13T00:46:47.165Z,18.98
2017-10-13T00:47:47.148Z,18.88
2017-10-13T00:48:47.135Z,18.88
2017-10-13T00:49:47.119Z,18.95
2017-10-13T00:50:47.104Z,18.78
2017-10-13T00:51:47.088Z,18.71
2017-10-13T00:52:47.073Z,18.77
2017-10-13T00:53:47.058Z,18.78
2017-10-13T00:54:47.042Z,18.88
2017-10-13T00:55:47.026Z,18.98
2017-10-13T00:56:47.011Z,18.96
2017-10-13T00:57:46.996Z,19.07
2017-10-13T00:58:46.997Z,19.08
2017-10-13T00:59:46.965Z,19.08
2017-10-13T01:00:46.950Z,18.89
2017-10-13T01:01:46.937Z,18.93
2017-10-13T01:02:46.920Z,19.00
2017-10-13T01:03:46.904Z,18.84
2017-10-13T01:04:46.888Z,18.74
2017-10-13T01:05:46.873Z,18.55
2017-10-13T01:06:46.858Z,18.70
2017-10-13T01:07:46.842Z,18.83
2017-10-13T01:08:46.827Z,18.96
2017-10-13T01:09:46.812Z,18.89
2017-10-13T01:10:46.797Z,19.00
2017-10-13T01:11:46.781Z,18.98
2017-10-13T01:12:46.765Z,19.14
2017-10-13T01:13:46.751Z,19.12
2017-10-13T01:14:46.735Z,19.09
2017-10-13T01:15:46.720Z,19.12
2017-10-13T01:16:46.704Z,19.15
2017-10-13T01:17:46.688Z,18.90
2017-10-13T01:18:46.674Z,18.99
2017-10-13T01:19:46.657Z,19.00
2017-10-13T01:20:46.643Z,19.02
2017-10-13T01:21:46.628Z,19.21
2017-10-13T01:22:46.612Z,19.12
2017-10-13T01:23:46.596Z,19.12
2017-10-13T01:24:46.581Z,19.14
2017-10-13T01:25:46.567Z,19.12
2017-10-13T01:26:46.551Z,19.21
2017-10-13T01:27:46.536Z,19.02
2017-10-13T01:28:46.520Z,18.93
2017-10-13T01:29:46.505Z,18.99
2017-10-13T01:30:46.490Z,18.98
2017-10-13T01:31:46.474Z,19.14
2017-10-13T01:32:46.458Z,19.08
2017-10-13T01:33:46.444Z,19.08
2017-10-13T01:34:46.429Z,19.08
2017-10-13T01:35:46.413Z,19.16
2017-10-13T01:36:46.397Z,19.16
2017-10-13T01:37:46.382Z,19.14
2017-10-13T01:38:46.368Z,19.08
2017-10-13T01:39:46.355Z,18.77
2017-10-13T01:40:46.337Z,18.93
2017-10-13T01:41:46.321Z,19.00
2017-10-13T01:42:46.307Z,18.99
2017-10-13T01:43:46.291Z,19.12
2017-10-13T01:44:46.276Z,18.98
2017-10-13T01:45:46.261Z,19.04
2017-10-13T01:46:46.246Z,18.92
2017-10-13T01:47:46.230Z,19.07
2017-10-13T01:48:46.214Z,18.98
2017-10-13T01:49:46.199Z,19.00
2017-10-13T01:50:46.185Z,18.98
2017-10-13T01:51:46.169Z,18.89
2017-10-13T01:52:46.162Z,19.04
2017-10-13T01:53:46.139Z,18.99
2017-10-13T01:54:46.122Z,18.93
2017-10-13T01:55:46.107Z,18.68
2017-10-13T01:56:46.093Z,18.80
2017-10-13T01:57:46.078Z,18.88
2017-10-13T01:58:46.072Z,18.75
2017-10-13T01:59:46.047Z,18.81
2017-10-13T02:00:46.032Z,18.93
2017-10-13T02:01:46.017Z,18.96
2017-10-13T02:02:46.003Z,18.90
2017-10-13T02:03:45.986Z,18.80
2017-10-13T02:04:45.971Z,18.81
2017-10-13T02:05:45.956Z,18.92
2017-10-13T02:06:45.941Z,18.80
2017-10-13T02:07:45.925Z,18.90
2017-10-13T02:08:45.910Z,19.00
2017-10-13T02:09:45.895Z,19.07
2017-10-13T02:10:45.880Z,19.16
2017-10-13T02:11:45.864Z,18.70
2017-10-13T02:12:45.848Z,18.70
2017-10-13T02:13:45.835Z,18.68
2017-10-13T02:14:45.819Z,18.70
2017-10-13T02:15:45.802Z,18.60
2017-10-13T02:16:45.787Z,18.71
2017-10-13T02:17:45.771Z,18.66
2017-10-13T02:18:45.758Z,18.75
2017-10-13T02:19:45.742Z,18.60
2017-10-13T02:20:45.729Z,18.66
2017-10-13T02:21:45.711Z,18.70
2017-10-13T02:22:45.696Z,18.66
2017-10-13T02:23:45.680Z,18.71
2017-10-13T02:24:45.665Z,18.66
2017-10-13T02:25:45.650Z,18.84
2017-10-13T02:26:45.635Z,18.84
2017-10-13T02:27:45.619Z,18.84
2017-10-13T02:28:45.604Z,18.81
2017-10-13T02:29:45.588Z,18.62
2017-10-13T02:30:45.573Z,18.65
2017-10-13T02:31:45.557Z,18.74
2017-10-13T02:32:45.542Z,18.70
2017-10-13T02:33:45.527Z,18.88
2017-10-13T02:34:45.512Z,18.90
2017-10-13T02:35:45.496Z,18.65
2017-10-13T02:36:45.479Z,18.80
2017-10-13T02:37:45.465Z,18.80
2017-10-13T02:38:45.451Z,18.95
2017-10-13T02:39:45.435Z,19.04
2017-10-13T02:40:45.419Z,18.45
2017-10-13T02:41:45.404Z,18.56
2017-10-13T02:42:45.389Z,18.45
2017-10-13T02:43:45.373Z,18.37
2017-10-13T02:44:45.358Z,18.31
2017-10-13T02:45:45.342Z,18.45
2017-10-13T02:46:45.327Z,18.50
2017-10-13T02:47:45.312Z,18.49
2017-10-13T02:48:45.353Z,18.49
2017-10-13T02:49:45.281Z,18.43
2017-10-13T02:50:45.266Z,18.25
2017-10-13T02:51:45.250Z,18.15
2017-10-13T02:52:45.236Z,18.16
2017-10-13T02:53:45.221Z,18.11
2017-10-13T02:54:45.209Z,18.19
2017-10-13T02:55:45.188Z,18.22
2017-10-13T02:56:45.173Z,18.25
2017-10-13T02:57:45.158Z,18.22
2017-10-13T02:58:45.143Z,18.35
2017-10-13T02:59:45.127Z,18.31
2017-10-13T03:00:45.115Z,18.31
2017-10-13T03:01:45.095Z,18.44
2017-10-13T03:02:45.080Z,18.58
2017-10-13T03:03:45.064Z,18.56
2017-10-13T03:04:45.049Z,18.52
2017-10-13T03:05:45.034Z,18.43
2017-10-13T03:06:45.019Z,18.50
2017-10-13T03:07:45.008Z,18.50
2017-10-13T03:08:44.987Z,18.44
2017-10-13T03:09:44.971Z,18.25
2017-10-13T03:10:44.957Z,18.28
2017-10-13T03:11:44.940Z,18.33
2017-10-13T03:12:44.925Z,18.45
2017-10-13T03:13:44.911Z,18.52
2017-10-13T03:14:44.893Z,18.33
2017-10-13T03:15:44.877Z,18.25
2017-10-13T03:16:44.863Z,18.31
2017-10-13T03:17:44.848Z,18.29
2017-10-13T03:18:44.832Z,18.45
2017-10-13T03:19:44.815Z,18.29
2017-10-13T03:20:44.800Z,18.43
2017-10-13T03:21:44.785Z,18.56
2017-10-13T03:22:44.769Z,18.52
2017-10-13T03:23:44.753Z,18.44
2017-10-13T03:24:44.738Z,18.50
2017-10-13T03:25:44.723Z,18.45
2017-10-13T03:26:44.707Z,18.43
2017-10-13T03:27:44.690Z,18.49
2017-10-13T03:28:44.675Z,18.58
2017-10-13T03:29:44.660Z,18.62
2017-10-13T03:30:44.648Z,18.59
2017-10-13T03:31:44.628Z,18.58
2017-10-13T03:32:44.613Z,18.43
2017-10-13T03:33:44.597Z,18.50
2017-10-13T03:34:44.582Z,18.44
2017-10-13T03:35:44.566Z,18.26
2017-10-13T03:36:44.551Z,18.28
2017-10-13T03:37:44.535Z,18.40
2017-10-13T03:38:44.519Z,18.45
2017-10-13T03:39:44.503Z,18.35
2017-10-13T03:40:44.489Z,18.47
2017-10-13T03:41:44.473Z,18.55
2017-10-13T03:42:44.458Z,18.60
2017-10-13T03:43:44.442Z,18.66
2017-10-13T03:44:44.426Z,18.56
2017-10-13T03:45:44.410Z,18.56
2017-10-13T03:46:44.395Z,18.65
2017-10-13T03:47:44.379Z,18.56
2017-10-13T03:48:44.363Z,18.60
2017-10-13T03:49:44.349Z,18.52
2017-10-13T03:50:44.332Z,18.56
2017-10-13T03:51:44.315Z,18.60
2017-10-13T03:52:44.300Z,18.65
2017-10-13T03:53:44.286Z,18.70
2017-10-13T03:54:44.271Z,18.65
2017-10-13T03:55:44.254Z,18.71
2017-10-13T03:56:44.240Z,18.77
2017-10-13T03:57:44.224Z,18.81
2017-10-13T03:58:44.208Z,18.59
2017-10-13T03:59:44.193Z,18.84
2017-10-13T04:00:44.183Z,18.84
2017-10-13T04:01:44.162Z,18.80
2017-10-13T04:02:44.153Z,18.90
2017-10-13T04:03:44.130Z,18.71
2017-10-13T04:04:44.115Z,18.65
2017-10-13T04:05:44.099Z,18.63
2017-10-13T04:06:44.089Z,18.74
2017-10-13T04:07:44.069Z,18.70
2017-10-13T04:08:44.054Z,18.68
2017-10-13T04:09:44.038Z,18.68
2017-10-13T04:10:44.025Z,18.84
2017-10-13T04:11:44.007Z,18.74
2017-10-13T04:12:43.991Z,18.63
2017-10-13T04:13:43.976Z,18.63
2017-10-13T04:14:43.962Z,18.56
2017-10-13T04:15:43.945Z,18.74
2017-10-13T04:16:43.930Z,18.66
2017-10-13T04:17:43.914Z,18.73
2017-10-13T04:18:43.899Z,18.71
2017-10-13T04:19:43.885Z,18.84
2017-10-13T04:20:43.869Z,18.81
2017-10-13T04:21:43.853Z,18.92
2017-10-13T04:22:43.837Z,18.84
2017-10-13T04:23:43.830Z,18.83
2017-10-13T04:24:43.808Z,18.89
2017-10-13T04:25:43.791Z,18.65
2017-10-13T04:26:43.777Z,18.66
2017-10-13T04:27:43.760Z,18.66
2017-10-13T04:28:43.745Z,18.71
2017-10-13T04:29:43.729Z,18.63
2017-10-13T04:30:43.715Z,18.66
2017-10-13T04:31:43.698Z,18.66
2017-10-13T04:32:43.684Z,18.74
2017-10-13T04:33:43.669Z,18.90
2017-10-13T04:35:43.638Z,18.77
2017-10-13T04:36:43.622Z,18.74
2017-10-13T04:37:43.607Z,18.80
2017-10-13T04:38:43.592Z,18.92
2017-10-13T04:39:43.577Z,18.78
2017-10-13T04:40:43.561Z,18.92
2017-10-13T04:41:43.546Z,18.89
2017-10-13T04:42:43.531Z,19.00
2017-10-13T04:43:43.514Z,19.07
2017-10-13T04:44:43.500Z,19.11
2017-10-13T04:45:43.484Z,19.08
2017-10-13T04:46:43.471Z,19.12
2017-10-13T04:47:43.453Z,19.19
2017-10-13T04:48:43.443Z,19.21
2017-10-13T04:49:43.423Z,19.19
2017-10-13T04:50:43.409Z,19.18
2017-10-13T04:51:43.392Z,19.00
2017-10-13T04:52:43.378Z,19.09
2017-10-13T04:53:43.364Z,18.96
2017-10-13T04:54:43.347Z,19.04
2017-10-13T04:55:43.334Z,19.18
2017-10-13T04:56:43.317Z,19.37
2017-10-13T04:57:43.302Z,19.40
2017-10-13T04:58:43.289Z,19.40
2017-10-13T04:59:43.271Z,19.51
2017-10-13T05:00:43.256Z,19.37
2017-10-13T05:01:43.241Z,19.29
2017-10-13T05:02:43.226Z,19.27
2017-10-13T05:03:43.211Z,19.37
2017-10-13T05:04:43.196Z,19.56
2017-10-13T05:05:43.180Z,19.47
2017-10-13T05:06:43.165Z,19.40
2017-10-13T05:07:43.149Z,19.26
2017-10-13T05:08:43.134Z,19.30
2017-10-13T05:09:43.120Z,19.29
2017-10-13T05:10:43.105Z,19.33
2017-10-13T05:11:43.089Z,19.09
2017-10-13T05:12:43.074Z,19.22
2017-10-13T05:13:43.059Z,19.36
2017-10-13T05:14:43.044Z,19.47
2017-10-13T05:15:43.028Z,19.48
2017-10-13T05:16:43.013Z,19.55
2017-10-13T05:17:42.998Z,19.48
2017-10-13T05:18:42.984Z,19.39
2017-10-13T05:19:42.968Z,19.27
2017-10-13T05:20:42.953Z,19.39
2017-10-13T05:21:42.938Z,19.40
2017-10-13T05:22:42.922Z,19.48
2017-10-13T05:23:42.907Z,19.63
2017-10-13T05:24:42.910Z,19.36
2017-10-13T05:25:42.878Z,19.45
2017-10-13T05:26:42.862Z,19.27
2017-10-13T05:27:42.849Z,19.44
2017-10-13T05:28:42.835Z,19.49
2017-10-13T05:29:42.816Z,19.59
2017-10-13T05:30:42.802Z,19.26
2017-10-13T05:31:42.786Z,19.48
2017-10-13T05:32:42.771Z,19.34
2017-10-13T05:33:42.757Z,19.18
2017-10-13T05:34:42.741Z,19.31
2017-10-13T05:35:42.727Z,19.19
2017-10-13T05:36:42.711Z,19.45
2017-10-13T05:37:42.695Z,19.56
2017-10-13T05:38:42.680Z,19.45
2017-10-13T05:39:42.665Z,19.27
2017-10-13T05:40:42.650Z,19.12
2017-10-13T05:41:42.635Z,19.31
2017-10-13T05:42:42.620Z,19.29
2017-10-13T05:43:42.604Z,19.26
2017-10-13T05:44:42.590Z,18.90
2017-10-13T05:45:42.573Z,18.86
2017-10-13T05:46:42.559Z,18.90
2017-10-13T05:47:42.543Z,19.12
2017-10-13T05:48:42.528Z,19.27
2017-10-13T05:49:42.513Z,19.31
2017-10-13T05:50:42.498Z,19.31
2017-10-13T05:51:42.482Z,19.45
2017-10-13T05:52:42.467Z,19.16
2017-10-13T05:53:42.452Z,19.19
2017-10-13T05:54:42.436Z,19.34
2017-10-13T05:55:42.420Z,18.93
2017-10-13T05:56:42.406Z,18.84
2017-10-13T05:57:42.391Z,18.74
2017-10-13T05:58:42.375Z,18.65
2017-10-13T05:59:42.360Z,18.90
2017-10-13T06:00:42.345Z,18.71
2017-10-13T06:01:42.330Z,18.70
2017-10-13T06:02:42.315Z,18.58
2017-10-13T06:03:42.299Z,18.71
2017-10-13T06:04:42.284Z,18.65
2017-10-13T06:05:42.268Z,18.80
2017-10-13T06:06:42.253Z,18.89
2017-10-13T06:07:42.241Z,18.92
2017-10-13T06:08:42.222Z,19.11
2017-10-13T06:09:42.212Z,19.15
2017-10-13T06:10:42.192Z,19.12
2017-10-13T06:11:42.175Z,19.02
2017-10-13T06:12:42.161Z,19.07
2017-10-13T06:13:42.146Z,19.04
2017-10-13T06:14:42.130Z,18.83
2017-10-13T06:15:42.114Z,19.07
2017-10-13T06:16:42.100Z,18.83
2017-10-13T06:17:42.084Z,18.90
2017-10-13T06:18:42.071Z,18.98
2017-10-13T06:19:42.053Z,18.98
2017-10-13T06:20:42.042Z,19.14
2017-10-13T06:21:42.022Z,19.26
2017-10-13T06:22:42.008Z,19.22
2017-10-13T06:23:41.990Z,19.33
2017-10-13T06:24:41.975Z,19.34
2017-10-13T06:25:41.961Z,19.27
2017-10-13T06:26:41.946Z,19.19
2017-10-13T06:27:41.929Z,19.11
2017-10-13T06:28:41.914Z,19.12
2017-10-13T06:29:41.900Z,19.15
2017-10-13T06:30:41.884Z,19.21
2017-10-13T06:31:41.881Z,19.33
2017-10-13T06:32:41.853Z,19.31
2017-10-13T06:33:41.839Z,19.30
2017-10-13T06:34:41.824Z,19.04
2017-10-13T06:35:41.807Z,19.04
2017-10-13T06:36:41.793Z,19.15
2017-10-13T06:37:41.777Z,18.88
2017-10-13T06:38:41.763Z,18.78
2017-10-13T06:39:41.755Z,18.68
2017-10-13T06:40:41.731Z,18.75
2017-10-13T06:41:41.722Z,18.88
2017-10-13T06:42:41.704Z,18.92
2017-10-13T06:43:41.685Z,18.88
2017-10-13T06:44:41.670Z,18.95
2017-10-13T06:45:41.655Z,19.07
2017-10-13T06:46:41.644Z,19.09
2017-10-13T06:47:41.624Z,19.21
2017-10-13T06:48:41.609Z,19.24
2017-10-13T06:49:41.593Z,19.27
2017-10-13T06:50:41.578Z,19.31
2017-10-13T06:51:41.563Z,19.40
2017-10-13T06:52:41.548Z,19.39
2017-10-13T06:53:41.535Z,19.41
2017-10-13T06:54:41.524Z,19.41
2017-10-13T06:55:41.501Z,19.41
2017-10-13T06:56:41.485Z,19.47
2017-10-13T06:57:41.471Z,19.51
2017-10-13T06:58:41.456Z,19.66
2017-10-13T06:59:41.439Z,19.67
2017-10-13T07:00:41.424Z,19.62
2017-10-13T07:01:41.410Z,19.59
2017-10-13T07:02:41.395Z,19.69
2017-10-13T07:03:41.379Z,19.77
2017-10-13T07:04:41.364Z,19.76
2017-10-13T07:05:41.348Z,19.76
2017-10-13T07:06:41.334Z,19.96
2017-10-13T07:07:41.319Z,20.06
2017-10-13T07:08:41.303Z,20.00
2017-10-13T07:09:41.289Z,19.94
2017-10-13T07:10:41.273Z,19.79
2017-10-13T07:11:41.257Z,19.89
2017-10-13T07:12:41.243Z,19.99
2017-10-13T07:13:41.228Z,20.04
2017-10-13T07:14:41.213Z,20.02
2017-10-13T07:15:41.197Z,20.11
2017-10-13T07:16:41.182Z,20.31
2017-10-13T07:17:41.180Z,20.32
2017-10-13T07:18:41.152Z,20.44
2017-10-13T07:19:41.340Z,20.41
2017-10-13T07:20:41.122Z,20.62
2017-10-13T07:21:41.108Z,20.51
2017-10-13T07:22:41.093Z,20.58
2017-10-13T07:23:41.078Z,20.67
2017-10-13T07:24:41.063Z,20.67
2017-10-13T07:25:41.048Z,20.77
2017-10-13T07:26:41.033Z,20.84
2017-10-13T07:27:41.018Z,20.84
2017-10-13T07:28:41.004Z,20.80
2017-10-13T07:29:40.989Z,20.69
2017-10-13T07:30:40.976Z,20.88
2017-10-13T07:31:40.959Z,20.70
2017-10-13T07:32:40.946Z,20.82
2017-10-13T07:33:40.930Z,20.62
2017-10-13T07:34:40.916Z,20.63
2017-10-13T07:35:40.901Z,20.69
2017-10-13T07:36:40.887Z,20.65
2017-10-13T07:37:40.872Z,20.43
2017-10-13T07:38:40.857Z,20.56
2017-10-13T07:39:40.843Z,20.65
2017-10-13T07:41:40.814Z,20.74
2017-10-13T07:42:40.804Z,20.66
2017-10-13T07:43:40.785Z,20.62
2017-10-13T07:44:40.775Z,20.48
2017-10-13T07:45:40.759Z,20.66
2017-10-13T07:46:40.742Z,20.60
2017-10-13T07:47:40.730Z,20.47
2017-10-13T07:48:40.712Z,20.25
2017-10-13T07:49:40.699Z,20.34
2017-10-13T07:50:40.684Z,20.47
2017-10-13T07:51:40.669Z,20.47
2017-10-13T07:52:40.660Z,20.40
2017-10-13T07:53:40.641Z,20.82
2017-10-13T07:54:40.626Z,20.90
2017-10-13T07:55:40.611Z,20.92
2017-10-13T07:56:40.597Z,20.84
2017-10-13T07:57:40.583Z,20.87
2017-10-13T07:58:40.569Z,20.74
2017-10-13T07:59:40.554Z,20.74
2017-10-13T08:00:40.590Z,20.74
2017-10-13T08:01:40.526Z,20.81
2017-10-13T08:02:40.511Z,20.78
2017-10-13T08:03:40.496Z,20.77
2017-10-13T08:04:40.483Z,20.81
2017-10-13T08:05:40.518Z,20.96
2017-10-13T08:06:40.454Z,20.84
2017-10-13T08:07:40.439Z,20.90
2017-10-13T08:08:40.425Z,20.92
2017-10-13T08:09:40.410Z,20.93
2017-10-13T08:11:40.382Z,20.93
2017-10-13T08:12:40.368Z,20.92
2017-10-13T08:13:40.354Z,20.93
2017-10-13T08:14:40.340Z,20.96
2017-10-13T08:15:40.325Z,20.96
2017-10-13T08:16:40.311Z,20.95
2017-10-13T08:17:40.297Z,20.88
2017-10-13T08:18:40.282Z,20.84
2017-10-13T08:19:40.266Z,20.82
2017-10-13T08:20:40.253Z,20.96
2017-10-13T08:21:40.239Z,20.84
2017-10-13T08:22:40.225Z,20.96
2017-10-13T08:23:40.210Z,20.97
2017-10-13T08:24:40.197Z,21.03
2017-10-13T08:25:40.182Z,20.97
2017-10-13T08:26:40.168Z,20.99
2017-10-13T08:27:40.153Z,20.97
2017-10-13T08:28:40.139Z,21.11
2017-10-13T08:29:40.125Z,21.15
2017-10-13T08:30:40.111Z,21.22
2017-10-13T08:31:40.095Z,21.20
2017-10-13T08:32:40.082Z,21.12
2017-10-13T08:33:40.068Z,21.25
2017-10-13T08:34:40.054Z,21.24
2017-10-13T08:35:40.039Z,21.27
2017-10-13T08:36:40.031Z,21.30
2017-10-13T08:37:40.012Z,21.30
2017-10-13T08:38:39.998Z,21.39
2017-10-13T08:39:39.982Z,21.50
2017-10-13T08:40:39.967Z,21.51
2017-10-13T08:41:39.962Z,21.48
2017-10-13T08:42:39.940Z,21.45
2017-10-13T08:43:39.926Z,21.60
2017-10-13T08:44:39.912Z,21.64
2017-10-13T08:45:39.898Z,21.60
2017-10-13T08:46:39.884Z,21.67
2017-10-13T08:47:39.870Z,21.62
2017-10-13T08:48:39.856Z,21.73
2017-10-13T08:49:39.842Z,21.69
2017-10-13T08:50:39.828Z,21.62
2017-10-13T08:51:39.812Z,21.79
2017-10-13T08:52:39.800Z,21.70
2017-10-13T08:53:39.786Z,21.75
2017-10-13T08:54:39.773Z,21.82
2017-10-13T08:55:39.758Z,21.79
2017-10-13T08:56:39.744Z,21.88
2017-10-13T08:57:39.731Z,21.92
2017-10-13T08:58:39.717Z,21.89
2017-10-13T08:59:39.702Z,21.99
2017-10-13T09:00:39.688Z,21.89
2017-10-13T09:01:39.683Z,21.95
2017-10-13T09:02:39.661Z,22.04
2017-10-13T09:03:39.647Z,22.08
2017-10-13T09:04:39.636Z,22.00
2017-10-13T09:05:39.620Z,22.08
2017-10-13T09:06:39.605Z,22.07
2017-10-13T09:07:39.592Z,22.13
2017-10-13T09:08:39.581Z,22.17
2017-10-13T09:09:39.565Z,22.26
2017-10-13T09:10:39.552Z,22.26
2017-10-13T09:11:39.537Z,22.28
2017-10-13T09:12:39.524Z,22.28
2017-10-13T09:13:39.510Z,22.32
2017-10-13T09:14:39.496Z,22.54
2017-10-13T09:15:39.482Z,22.54
2017-10-13T09:16:39.470Z,22.62
2017-10-13T09:17:39.456Z,22.59
2017-10-13T09:18:39.442Z,22.65
2017-10-13T09:19:39.429Z,22.78
2017-10-13T09:20:39.415Z,22.85
2017-10-13T09:21:39.402Z,22.88
2017-10-13T09:22:39.388Z,22.99
2017-10-13T09:23:39.374Z,23.00
2017-10-13T09:24:39.361Z,23.13
2017-10-13T09:25:39.348Z,23.10
2017-10-13T09:26:39.335Z,23.20
2017-10-13T09:27:39.322Z,23.32
2017-10-13T09:28:39.308Z,23.32
2017-10-13T09:29:39.296Z,23.31
2017-10-13T09:30:39.288Z,23.36
2017-10-13T09:31:39.268Z,23.40
2017-10-13T09:32:39.256Z,23.47
2017-10-13T09:33:39.243Z,23.44
2017-10-13T09:34:39.231Z,23.46
2017-10-13T09:35:39.219Z,23.58
2017-10-13T09:36:39.205Z,23.62
2017-10-13T09:37:39.192Z,23.66
2017-10-13T09:38:39.236Z,23.69
2017-10-13T09:39:39.166Z,23.78
2017-10-13T09:40:39.157Z,23.69
2017-10-13T09:41:39.141Z,23.81
2017-10-13T09:42:39.130Z,23.93
2017-10-13T09:43:39.115Z,23.81
2017-10-13T09:44:39.104Z,23.91
2017-10-13T09:45:39.095Z,23.98
2017-10-13T09:46:39.079Z,24.16
2017-10-13T09:47:39.067Z,24.21
2017-10-13T09:48:39.055Z,24.26
2017-10-13T09:49:39.046Z,24.33
2017-10-13T09:50:39.031Z,24.36
2017-10-13T09:51:39.018Z,24.42
2017-10-13T09:52:39.006Z,24.42
2017-10-13T09:53:38.994Z,24.42
2017-10-13T09:54:38.983Z,24.48
2017-10-13T09:55:38.970Z,24.48
2017-10-13T09:56:38.962Z,24.66
2017-10-13T09:57:38.946Z,24.70
2017-10-13T10:03:00.082Z,24.66
2017-10-13T10:04:00.069Z,24.77
2017-10-13T10:05:00.058Z,24.73
2017-10-13T10:06:00.047Z,24.84
2017-10-13T10:07:00.035Z,24.93
2017-10-13T10:08:00.022Z,24.85
2017-10-13T10:09:00.024Z,24.91
2017-10-13T10:10:00.000Z,24.85
2017-10-13T10:10:59.988Z,24.78
2017-10-13T10:11:59.977Z,24.86
2017-10-13T10:12:59.966Z,24.89
2017-10-13T10:13:59.954Z,24.89
2017-10-13T10:14:59.942Z,25.01
2017-10-13T10:15:59.930Z,25.06
2017-10-13T10:16:59.920Z,25.04
2017-10-13T10:17:59.909Z,25.08
2017-10-13T10:18:59.897Z,25.06
2017-10-13T10:19:59.891Z,25.16
2017-10-13T10:20:59.873Z,25.10
2017-10-13T10:21:59.863Z,25.11
2017-10-13T10:22:59.851Z,25.11
2017-10-13T10:23:59.841Z,25.01
2017-10-13T10:24:59.830Z,24.92
2017-10-13T10:25:59.821Z,24.88
2017-10-13T10:26:59.806Z,24.93
2017-10-13T10:27:59.796Z,25.06
2017-10-13T10:28:59.786Z,24.92
2017-10-13T10:29:59.774Z,24.99
2017-10-13T10:30:59.766Z,25.11
2017-10-13T10:31:59.749Z,25.06
2017-10-13T10:32:59.739Z,25.10
2017-10-13T10:33:59.731Z,24.92
2017-10-13T10:34:59.719Z,24.80
2017-10-13T10:35:59.742Z,24.76
2017-10-13T10:36:59.694Z,24.66
2017-10-13T10:37:59.683Z,24.57
2017-10-13T10:38:59.671Z,24.47
2017-10-13T10:39:59.661Z,24.42
2017-10-13T10:40:59.650Z,24.32
2017-10-13T10:41:59.647Z,24.40
2017-10-13T10:42:59.662Z,24.35
2017-10-13T10:43:59.615Z,24.48
2017-10-13T10:44:59.604Z,24.42
2017-10-13T10:45:59.591Z,24.54
2017-10-13T10:46:59.584Z,24.53
2017-10-13T10:47:59.568Z,24.57
2017-10-13T10:48:59.557Z,24.58
2017-10-13T10:49:59.548Z,24.76
2017-10-13T10:50:59.534Z,24.73
2017-10-13T10:51:59.524Z,24.89
2017-10-13T10:52:59.511Z,25.01
2017-10-13T10:53:59.502Z,25.01
2017-10-13T10:54:59.496Z,25.04
2017-10-13T10:55:59.478Z,25.06
2017-10-13T10:56:59.466Z,25.14
2017-10-13T10:57:59.455Z,25.25
2017-10-13T10:58:59.444Z,25.23
2017-10-13T10:59:59.436Z,25.33
2017-10-13T11:00:59.422Z,25.21
2017-10-13T11:01:59.412Z,25.17
2017-10-13T11:02:59.401Z,25.25
2017-10-13T11:03:59.388Z,25.41
2017-10-13T11:04:59.378Z,25.41
2017-10-13T11:05:59.368Z,25.47
2017-10-13T11:06:59.356Z,25.41
2017-10-13T11:07:59.346Z,25.28
2017-10-13T11:08:59.334Z,25.31
2017-10-13T11:09:59.324Z,25.35
2017-10-13T11:10:59.313Z,25.28
2017-10-13T11:11:59.305Z,25.14
2017-10-13T11:12:59.291Z,25.01
2017-10-13T11:13:59.283Z,25.06
2017-10-13T11:14:59.270Z,24.96
2017-10-13T11:15:59.260Z,24.88
2017-10-13T11:16:59.248Z,24.66
2017-10-13T11:17:59.239Z,24.66
2017-10-13T11:18:59.225Z,24.69
2017-10-13T11:19:59.216Z,24.88
2017-10-13T11:20:59.204Z,24.96
2017-10-13T11:21:59.193Z,25.10
2017-10-13T11:22:59.182Z,25.18
2017-10-13T11:23:59.171Z,25.23
2017-10-13T11:24:59.168Z,25.40
2017-10-13T11:25:59.149Z,25.43
2017-10-13T11:26:59.137Z,25.55
2017-10-13T11:27:59.127Z,25.63
2017-10-13T11:28:59.117Z,25.65
2017-10-13T11:29:59.106Z,25.59
2017-10-13T11:30:59.094Z,25.63
2017-10-13T11:31:59.085Z,25.73
2017-10-13T11:32:59.074Z,25.77
2017-10-13T11:33:59.062Z,25.77
2017-10-13T11:34:59.051Z,25.77
2017-10-13T11:35:59.041Z,25.84
2017-10-13T11:36:59.036Z,25.87
2017-10-13T11:37:59.021Z,25.73
2017-10-13T11:38:59.009Z,25.73
2017-10-13T11:39:59.003Z,25.83
2017-10-13T11:40:58.990Z,25.93
2017-10-13T11:41:58.980Z,25.93
2017-10-13T11:42:58.969Z,25.95
2017-10-13T11:43:58.959Z,25.98
2017-10-13T11:44:58.948Z,26.06
2017-10-13T11:45:58.939Z,26.07
2017-10-13T11:46:58.929Z,26.10
2017-10-13T11:47:58.919Z,26.07
2017-10-13T11:48:58.909Z,26.07
2017-10-13T11:49:58.903Z,26.05
2017-10-13T11:50:58.890Z,25.99
2017-10-13T11:51:58.899Z,25.98
2017-10-13T11:52:58.869Z,26.10
2017-10-13T11:53:58.860Z,26.10
2017-10-13T11:54:58.849Z,26.15
2017-10-13T11:55:58.840Z,26.13
2017-10-13T11:56:58.829Z,26.13
2017-10-13T11:57:58.821Z,26.18
2017-10-13T11:58:58.809Z,26.07
2017-10-13T11:59:58.801Z,26.10
2017-10-13T12:00:58.790Z,26.13
2017-10-13T12:01:58.782Z,26.22
2017-10-13T12:02:58.770Z,26.13
2017-10-13T12:03:58.761Z,25.99
2017-10-13T12:04:58.751Z,26.02
2017-10-13T12:05:58.743Z,25.98
2017-10-13T12:06:58.731Z,26.09
2017-10-13T12:07:58.727Z,26.16
2017-10-13T12:08:58.713Z,26.15
2017-10-13T12:09:58.704Z,26.09
2017-10-13T12:10:58.692Z,26.05
2017-10-13T12:11:58.684Z,26.06
2017-10-13T12:12:58.672Z,25.99
2017-10-13T12:13:58.663Z,25.98
2017-10-13T12:14:58.652Z,25.96
2017-10-13T12:15:58.643Z,26.00
2017-10-13T12:16:58.633Z,25.98
2017-10-13T12:17:58.623Z,26.09
2017-10-13T12:18:58.612Z,26.07
2017-10-13T12:19:58.602Z,26.10
2017-10-13T12:20:58.593Z,26.07
2017-10-13T12:21:58.597Z,26.06
2017-10-13T12:22:58.573Z,26.22
2017-10-13T12:23:58.563Z,26.26
2017-10-13T12:24:58.551Z,26.25
2017-10-13T12:25:58.547Z,26.16
2017-10-13T12:26:58.530Z,26.19
2017-10-13T12:27:58.521Z,26.26
2017-10-13T12:28:58.510Z,26.38
2017-10-13T12:29:58.507Z,26.52
2017-10-13T12:30:58.490Z,26.55
2017-10-13T12:31:58.479Z,26.52
2017-10-13T12:32:58.471Z,26.51
2017-10-13T12:33:58.465Z,26.47
2017-10-13T12:34:58.450Z,26.31
2017-10-13T12:35:58.439Z,26.13
2017-10-13T12:36:58.429Z,26.21
2017-10-13T12:37:58.418Z,26.18
2017-10-13T12:38:58.409Z,26.23
2017-10-13T12:39:58.396Z,26.41
2017-10-13T12:40:58.387Z,26.48
2017-10-13T12:41:58.377Z,26.51
2017-10-13T12:42:58.366Z,26.29
2017-10-13T12:43:58.354Z,26.09
2017-10-13T12:44:58.344Z,26.03
2017-10-13T12:45:58.335Z,25.95
2017-10-13T12:46:58.322Z,25.80
2017-10-13T12:47:58.313Z,25.73
2017-10-13T12:48:58.303Z,25.65
2017-10-13T12:49:58.291Z,25.60
2017-10-13T12:50:58.280Z,25.53
2017-10-13T12:51:58.269Z,25.48
2017-10-13T12:52:58.259Z,25.44
2017-10-13T12:53:58.248Z,25.36
2017-10-13T12:54:58.236Z,25.40
2017-10-13T12:55:58.226Z,25.44
2017-10-13T12:56:58.222Z,25.40
2017-10-13T12:57:58.204Z,25.40
2017-10-13T12:58:58.193Z,25.32
2017-10-13T12:59:58.180Z,25.31